Time;durP1;ratioP1;P1;durP2;ratioP2;P2;SDS_P1;SDS_P2;PMS_P1;PMS_P2;Temp;Humidity;BMP_temperature;BMP_pressure;BME280_temperature;BME280_humidity;BME280_pressure;Samples;Min_cycle;Max_cycle;Signal;HPM_P1;HPM_P2
2022/05/25 00:00:31;;;;;;;;;;;;;;;-144.12;100.00;72078.50;5000197;28;19932;-63
2022/05/25 00:02:56;;;;;;;;;;;;;;;-144.12;100.00;72078.50;5007051;28;19919;-63
2022/05/25 00:05:22;;;;;;;;;;;;;;;-144.12;100.00;72078.50;4990291;28;19929;-63
2022/05/25 00:07:47;;;;;;;;;;;;;;;-144.12;100.00;72078.50;5008555;28;19968;-63
2022/05/25 00:10:13;;;;;;;;;;;;;;;-144.12;100.00;72078.50;5000927;28;19991;-64
2022/05/25 00:12:41;;;;;;;;;;;;;;;-144.12;100.00;72078.50;5008257;28;20012;-64
2022/05/25 00:15:08;;;;;;;;;;;;;;;-144.12;100.00;72078.50;5009158;28;20292;-63
2022/05/25 00:17:33;;;;;;;;;;;;;;;-144.12;100.00;72078.50;5001598;28;19929;-64
2022/05/25 00:19:59;;;;;;;;;;;;;;;-144.12;100.00;72078.50;4973721;28;19913;-64
2022/05/25 00:22:24;;;;;;;;;;;;;;;-144.12;100.00;72078.50;4989601;28;19936;-63
2022/05/25 00:24:50;;;;;;;;;;;;;;;-144.12;100.00;72078.50;4989843;28;19965;-63
2022/05/25 00:27:17;;;;;;;;;;;;;;;-144.12;100.00;72078.50;5000947;28;19914;-63
2022/05/25 00:29:43;;;;;;;;;;;;;;;-144.12;100.00;72078.50;4989339;28;20343;-63
2022/05/25 00:32:08;;;;;;;;;;;;;;;-144.12;100.00;72078.50;4989627;28;19914;-64
2022/05/25 00:34:34;;;;;;;;;;;;;;;-144.12;100.00;72078.50;4994241;28;19914;-64
2022/05/25 00:36:59;;;;;;;;;;;;;;;-144.12;100.00;72078.50;5003945;28;19983;-64
2022/05/25 00:39:24;;;;;;;;;;;;;;;-144.12;100.00;72078.50;5008124;28;19936;-64
2022/05/25 00:41:50;;;;;;;;;;;;;;;-144.12;100.00;72078.50;5009284;28;20288;-63
2022/05/25 00:44:16;;;;;;;;;;;;;;;-144.12;100.00;72078.50;4985574;28;19917;-63
2022/05/25 00:46:42;;;;;;;;;;;;;;;-144.12;100.00;72078.50;5006934;28;19926;-63
2022/05/25 00:49:10;;;;;;;;;;;;;;;-144.12;100.00;72078.50;5008387;28;19921;-64
2022/05/25 00:51:39;;;;;;;;;;;;;;;-144.12;100.00;72078.50;5009292;28;19914;-64
2022/05/25 00:54:07;;;;;;;;;;;;;;;-144.12;100.00;72078.50;4999639;28;20307;-63
2022/05/25 00:56:34;;;;;;;;;;;;;;;-144.12;100.00;72078.50;5007318;28;19925;-64
2022/05/25 00:59:03;;;;;;;;;;;;;;;-144.12;100.00;72078.50;5009151;28;19913;-64
2022/05/25 01:01:29;;;;;;;;;;;;;;;-144.12;100.00;72078.50;4993292;28;20015;-63
2022/05/25 01:03:55;;;;;;;;;;;;;;;-144.12;100.00;72078.50;5007694;28;20008;-64
2022/05/25 01:06:39;;;;;;;;;;;;;;;-144.12;100.00;72078.50;4993260;28;19914;-63
2022/05/25 01:09:07;;;;;;;;;;;;;;;-144.12;100.00;72078.50;5012181;28;19913;-64
2022/05/25 01:11:35;;;;;;;;;;;;;;;-144.12;100.00;72078.50;5002215;28;19964;-64
2022/05/25 01:14:03;;;;;;;;;;;;;;;-144.12;100.00;72078.50;5012281;28;20019;-64
2022/05/25 01:16:49;;;;;;;;;;;;;;;-144.12;100.00;72078.50;4990871;28;20000;-64
2022/05/25 01:19:23;;;;;;;;;;;;;;;-144.12;100.00;72078.50;5005938;28;19913;-64
2022/05/25 01:21:53;;;;;;;;;;;;;;;-144.12;100.00;72078.50;4990160;28;20601;-64
2022/05/25 01:24:31;;;;;;;;;;;;;;;-144.12;100.00;72078.50;5009574;28;19956;-64
2022/05/25 01:27:02;;;;;;;;;;;;;;;-144.12;100.00;72078.50;5006560;28;20384;-63
2022/05/25 01:29:46;;;;;;;;;;;;;;;-144.12;100.00;72078.50;5011369;28;19919;-64
2022/05/25 01:32:19;;;;;;;;;;;;;;;-144.12;100.00;72078.50;5000585;28;20004;-63
2022/05/25 01:34:53;;;;;;;;;;;;;;;-144.12;100.00;72078.50;4989712;28;19913;-64
2022/05/25 01:37:27;;;;;;;;;;;;;;;-144.12;100.00;72078.50;5009808;28;19963;-64
2022/05/25 01:40:00;;;;;;;;;;;;;;;-144.12;100.00;72078.50;5005056;28;19972;-64
2022/05/25 01:42:29;;;;;;;;;;;;;;;-144.12;100.00;72078.50;5009472;28;19958;-64
2022/05/25 01:44:58;;;;;;;;;;;;;;;-144.12;100.00;72078.50;5009972;28;19924;-64
2022/05/25 01:47:25;;;;;;;;;;;;;;;-144.12;100.00;72078.50;5001641;28;19914;-64
2022/05/25 01:49:53;;;;;;;;;;;;;;;-144.12;100.00;72078.50;4994425;28;19917;-64
2022/05/25 01:52:28;;;;;;;;;;;;;;;-144.12;100.00;72078.50;5009783;28;20008;-64
2022/05/25 01:54:55;;;;;;;;;;;;;;;-144.12;100.00;72078.50;5011416;28;19917;-64
2022/05/25 01:57:27;;;;;;;;;;;;;;;-144.12;100.00;72078.50;5009682;28;20704;-64
2022/05/25 01:59:52;;;;;;;;;;;;;;;-144.12;100.00;72078.50;5006113;28;20091;-64
2022/05/25 02:05:06;;;;;;;;;;;;;;;-144.12;100.00;72078.50;5011467;28;20384;-64
2022/05/25 02:07:31;;;;;;;;;;;;;;;-144.12;100.00;72078.50;5003621;28;19913;-64
2022/05/25 02:09:59;;;;;;;;;;;;;;;-144.12;100.00;72078.50;5011361;28;19921;-66
2022/05/25 02:12:25;;;;;;;;;;;;;;;-144.12;100.00;72078.50;5010755;28;19913;-64
2022/05/25 02:14:58;;;;;;;;;;;;;;;-144.12;100.00;72078.50;5004914;28;19914;-64
2022/05/25 02:17:33;;;;;;;;;;;;;;;-144.12;100.00;72078.50;5000612;28;19952;-63
2022/05/25 02:20:00;;;;;;;;;;;;;;;-144.12;100.00;72078.50;5006134;28;19967;-63
2022/05/25 02:22:43;;;;;;;;;;;;;;;-144.12;100.00;72078.50;5002280;28;19925;-64
2022/05/25 02:25:13;;;;;;;;;;;;;;;-144.12;100.00;72078.50;5011135;28;19922;-63
2022/05/25 02:27:41;;;;;;;;;;;;;;;-144.12;100.00;72078.50;5010316;28;20792;-64
2022/05/25 02:30:19;;;;;;;;;;;;;;;-144.12;100.00;72078.50;5006845;28;19918;-64
2022/05/25 02:32:46;;;;;;;;;;;;;;;-144.12;100.00;72078.50;5007844;28;19913;-64
2022/05/25 02:35:14;;;;;;;;;;;;;;;-144.12;100.00;72078.50;4992383;28;19928;-64
2022/05/25 02:37:39;;;;;;;;;;;;;;;-144.12;100.00;72078.50;5010476;28;19932;-64
2022/05/25 02:40:08;;;;;;;;;;;;;;;-144.12;100.00;72078.50;5008454;28;20631;-64
2022/05/25 02:42:36;;;;;;;;;;;;;;;-144.12;100.00;72078.50;5006476;28;20360;-64
2022/05/25 02:45:02;;;;;;;;;;;;;;;-144.12;100.00;72078.50;4993448;28;20303;-64
2022/05/25 02:47:27;;;;;;;;;;;;;;;-144.12;100.00;72078.50;5009469;28;19917;-64
2022/05/25 02:49:53;;;;;;;;;;;;;;;-144.12;100.00;72078.50;5010712;28;19918;-64
2022/05/25 02:52:18;;;;;;;;;;;;;;;-144.12;100.00;72078.50;5010422;28;20240;-64
2022/05/25 02:54:43;;;;;;;;;;;;;;;-144.12;100.00;72078.50;5005388;28;20338;-64
2022/05/25 02:57:09;;;;;;;;;;;;;;;-144.12;100.00;72078.50;5010379;28;20307;-64
2022/05/25 02:59:34;;;;;;;;;;;;;;;-144.12;100.00;72078.50;5001177;28;19913;-64
2022/05/25 03:02:02;;;;;;;;;;;;;;;-144.12;100.00;72078.50;4979158;28;19923;-64
2022/05/25 03:04:27;;;;;;;;;;;;;;;-144.12;100.00;72078.50;5007095;28;19917;-63
2022/05/25 03:06:53;;;;;;;;;;;;;;;-144.12;100.00;72078.50;5009044;28;19917;-64
2022/05/25 03:09:18;;;;;;;;;;;;;;;-144.12;100.00;72078.50;5010318;28;19999;-64
2022/05/25 03:11:44;;;;;;;;;;;;;;;-144.12;100.00;72078.50;5006437;28;19951;-62
2022/05/25 03:14:09;;;;;;;;;;;;;;;-144.12;100.00;72078.50;5011133;28;19924;-64
2022/05/25 03:16:34;;;;;;;;;;;;;;;-144.12;100.00;72078.50;5010838;28;19917;-64
2022/05/25 03:19:00;;;;;;;;;;;;;;;-144.12;100.00;72078.50;5001716;28;19921;-64
2022/05/25 03:21:25;;;;;;;;;;;;;;;-144.12;100.00;72078.50;5009753;28;19920;-64
2022/05/25 03:23:51;;;;;;;;;;;;;;;-144.12;100.00;72078.50;4991845;28;20550;-65
2022/05/25 03:26:16;;;;;;;;;;;;;;;-144.12;100.00;72078.50;5002350;28;20288;-64
2022/05/25 03:28:42;;;;;;;;;;;;;;;-144.12;100.00;72078.50;5008718;28;19918;-64
2022/05/25 03:31:07;;;;;;;;;;;;;;;-144.12;100.00;72078.50;5004355;28;19984;-64
2022/05/25 03:33:33;;;;;;;;;;;;;;;-144.12;100.00;72078.50;4997371;28;19913;-64
2022/05/25 03:35:58;;;;;;;;;;;;;;;-144.12;100.00;72078.50;4998414;28;19920;-64
2022/05/25 03:38:24;;;;;;;;;;;;;;;-144.12;100.00;72078.50;4996231;28;19913;-64
2022/05/25 03:40:49;;;;;;;;;;;;;;;-144.12;100.00;72078.50;4999519;28;20019;-64
2022/05/25 03:43:16;;;;;;;;;;;;;;;-144.12;100.00;72078.50;5002664;28;19920;-63
2022/05/25 03:45:42;;;;;;;;;;;;;;;-144.12;100.00;72078.50;4998838;28;19920;-64
2022/05/25 03:48:07;;;;;;;;;;;;;;;-144.12;100.00;72078.50;5007676;28;19917;-64
2022/05/25 03:50:34;;;;;;;;;;;;;;;-144.12;100.00;72078.50;5007494;28;19944;-64
2022/05/25 03:52:59;;;;;;;;;;;;;;;-144.12;100.00;72078.50;5009627;28;20487;-64
2022/05/25 03:55:25;;;;;;;;;;;;;;;-144.12;100.00;72078.50;5008768;28;20000;-63
2022/05/25 03:57:50;;;;;;;;;;;;;;;-144.12;100.00;72078.50;5003020;28;19921;-63
2022/05/25 04:00:17;;;;;;;;;;;;;;;-144.12;100.00;72078.50;5002601;28;20339;-64
2022/05/25 04:02:42;;;;;;;;;;;;;;;-144.12;100.00;72078.50;4988802;28;19917;-64
2022/05/25 04:05:08;;;;;;;;;;;;;;;-144.12;100.00;72078.50;5005759;28;19917;-64
2022/05/25 04:07:35;;;;;;;;;;;;;;;-144.12;100.00;72078.50;4997463;28;19996;-63
2022/05/25 04:10:00;;;;;;;;;;;;;;;-144.12;100.00;72078.50;4979012;28;19976;-63
2022/05/25 04:12:26;;;;;;;;;;;;;;;-144.12;100.00;72078.50;4998515;28;19913;-63
2022/05/25 04:14:51;;;;;;;;;;;;;;;-144.12;100.00;72078.50;4994877;28;20777;-63
2022/05/25 04:17:17;;;;;;;;;;;;;;;-144.12;100.00;72078.50;5001310;28;20008;-63
2022/05/25 04:19:42;;;;;;;;;;;;;;;-144.12;100.00;72078.50;4981638;28;19933;-64
2022/05/25 04:22:07;;;;;;;;;;;;;;;-144.12;100.00;72078.50;5000502;28;19961;-63
2022/05/25 04:24:32;;;;;;;;;;;;;;;-144.12;100.00;72078.50;4995632;28;20382;-63
2022/05/25 04:26:59;;;;;;;;;;;;;;;-144.12;100.00;72078.50;4999491;28;19917;-63
2022/05/25 04:29:25;;;;;;;;;;;;;;;-144.12;100.00;72078.50;4993934;28;19976;-64
2022/05/25 04:31:50;;;;;;;;;;;;;;;-144.12;100.00;72078.50;4995471;28;20338;-64
2022/05/25 04:34:15;;;;;;;;;;;;;;;-144.12;100.00;72078.50;5001141;28;19917;-63
2022/05/25 04:36:41;;;;;;;;;;;;;;;-144.12;100.00;72078.50;4998396;28;19921;-63
2022/05/25 04:39:07;;;;;;;;;;;;;;;-144.12;100.00;72078.50;5003336;28;20011;-64
2022/05/25 04:41:34;;;;;;;;;;;;;;;-144.12;100.00;72078.50;5000925;28;20047;-63
2022/05/25 04:43:59;;;;;;;;;;;;;;;-144.12;100.00;72078.50;4997409;28;19917;-63
2022/05/25 04:46:25;;;;;;;;;;;;;;;-144.12;100.00;72078.50;5001473;28;19925;-63
2022/05/25 04:48:50;;;;;;;;;;;;;;;-144.12;100.00;72078.50;4999498;28;20357;-63
2022/05/25 04:51:16;;;;;;;;;;;;;;;-144.12;100.00;72078.50;5001744;28;19925;-64
2022/05/25 04:53:42;;;;;;;;;;;;;;;-144.12;100.00;72078.50;5000903;28;20388;-63
2022/05/25 04:58:52;;;;;;;;;;;;;;;-144.12;100.00;72078.50;4994295;28;19919;-63
2022/05/25 05:01:19;;;;;;;;;;;;;;;-144.12;100.00;72078.50;4995864;28;20490;-63
2022/05/25 05:03:45;;;;;;;;;;;;;;;-144.12;100.00;72078.50;4992962;28;19936;-63
2022/05/25 05:06:10;;;;;;;;;;;;;;;-144.12;100.00;72078.50;4993868;28;20020;-67
2022/05/25 05:08:36;;;;;;;;;;;;;;;-144.12;100.00;72078.50;5006409;28;20012;-63
2022/05/25 05:11:09;;;;;;;;;;;;;;;-144.12;100.00;72078.50;5012468;28;19924;-65
2022/05/25 05:13:35;;;;;;;;;;;;;;;-144.12;100.00;72078.50;5004472;28;19918;-66
2022/05/25 05:16:03;;;;;;;;;;;;;;;-144.12;100.00;72078.50;5008607;28;19975;-63
2022/05/25 05:18:28;;;;;;;;;;;;;;;-144.12;100.00;72078.50;5009109;28;19979;-63
2022/05/25 05:21:17;;;;;;;;;;;;;;;-144.12;100.00;72078.50;4982268;28;19943;-63
2022/05/25 05:23:43;;;;;;;;;;;;;;;-144.12;100.00;72078.50;4990338;28;20589;-66
2022/05/25 05:26:08;;;;;;;;;;;;;;;-144.12;100.00;72078.50;4993494;28;20739;-63
2022/05/25 05:28:35;;;;;;;;;;;;;;;-144.12;100.00;72078.50;4998086;28;20775;-66
2022/05/25 05:31:02;;;;;;;;;;;;;;;-144.12;100.00;72078.50;4997713;28;21592;-63
2022/05/25 05:33:28;;;;;;;;;;;;;;;-144.12;100.00;72078.50;5000500;28;20004;-63
2022/05/25 05:36:06;;;;;;;;;;;;;;;-144.12;100.00;72078.50;4994235;28;19921;-63
2022/05/25 05:41:06;;;;;;;;;;;;;;;-144.12;100.00;72078.50;5040443;28;20337;-65
2022/05/25 05:43:31;;;;;;;;;;;;;;;-144.12;100.00;72078.50;5040520;28;19920;-66
2022/05/25 05:45:56;;;;;;;;;;;;;;;-144.12;100.00;72078.50;5040943;28;19943;-63
2022/05/25 05:48:24;;;;;;;;;;;;;;;-144.12;100.00;72078.50;5018655;28;19912;-63
2022/05/25 05:50:51;;;;;;;;;;;;;;;-144.12;100.00;72078.50;5030373;28;20019;-63
2022/05/25 05:53:18;;;;;;;;;;;;;;;-144.12;100.00;72078.50;5049188;28;19919;-63
2022/05/25 05:55:45;;;;;;;;;;;;;;;-144.12;100.00;72078.50;5040431;28;20272;-63
2022/05/25 05:58:10;;;;;;;;;;;;;;;-144.12;100.00;72078.50;5036980;28;20282;-62
2022/05/25 06:00:37;;;;;;;;;;;;;;;-144.12;100.00;72078.50;5018928;28;19913;-63
2022/05/25 06:03:02;;;;;;;;;;;;;;;-144.12;100.00;72078.50;5036897;28;19928;-63
2022/05/25 06:05:27;;;;;;;;;;;;;;;-144.12;100.00;72078.50;5031912;28;19920;-64
2022/05/25 06:07:53;;;;;;;;;;;;;;;-144.12;100.00;72078.50;5033834;28;20294;-63
2022/05/25 06:10:18;;;;;;;;;;;;;;;-144.12;100.00;72078.50;5033267;28;19969;-63
2022/05/25 06:12:44;;;;;;;;;;;;;;;-144.12;100.00;72078.50;5037203;28;19913;-65
2022/05/25 06:20:38;;;;;;;;;;;;;;;-144.12;100.00;72078.50;5034868;28;19913;-65
2022/05/25 06:23:03;;;;;;;;;;;;;;;-144.12;100.00;72078.50;5045642;28;20219;-62
2022/05/25 06:25:28;;;;;;;;;;;;;;;-144.12;100.00;72078.50;5049649;28;19966;-65
2022/05/25 06:27:54;;;;;;;;;;;;;;;-144.12;100.00;72078.50;5049066;28;19921;-62
2022/05/25 06:30:19;;;;;;;;;;;;;;;-144.12;100.00;72078.50;5047504;28;19988;-63
2022/05/25 06:32:45;;;;;;;;;;;;;;;-144.12;100.00;72078.50;5049860;28;19919;-63
2022/05/25 06:35:10;;;;;;;;;;;;;;;-144.12;100.00;72078.50;5048135;28;19958;-62
2022/05/25 06:37:35;;;;;;;;;;;;;;;-144.12;100.00;72078.50;5028471;28;20203;-61
2022/05/25 06:40:01;;;;;;;;;;;;;;;-144.12;100.00;72078.50;5048485;28;19920;-63
2022/05/25 06:42:27;;;;;;;;;;;;;;;-144.12;100.00;72078.50;5040118;28;20444;-63
2022/05/25 06:44:52;;;;;;;;;;;;;;;-144.12;100.00;72078.50;5034969;28;20023;-63
2022/05/25 06:47:18;;;;;;;;;;;;;;;-144.12;100.00;72078.50;5029460;28;20414;-63
2022/05/25 06:49:43;;;;;;;;;;;;;;;-144.12;100.00;72078.50;5037896;28;19921;-64
2022/05/25 06:52:09;;;;;;;;;;;;;;;-144.12;100.00;72078.50;5048168;28;20357;-64
2022/05/25 06:54:35;;;;;;;;;;;;;;;-144.12;100.00;72078.50;5049640;28;20147;-62
2022/05/25 06:57:00;;;;;;;;;;;;;;;-144.12;100.00;72078.50;5032262;28;19912;-62
2022/05/25 06:59:26;;;;;;;;;;;;;;;-144.12;100.00;72078.50;5042771;28;19962;-62
2022/05/25 07:01:51;;;;;;;;;;;;;;;-144.12;100.00;72078.50;5047981;28;20394;-62
2022/05/25 07:04:16;;;;;;;;;;;;;;;-144.12;100.00;72078.50;5049373;28;20216;-62
2022/05/25 07:06:42;;;;;;;;;;;;;;;-144.12;100.00;72078.50;5049075;28;20405;-63
2022/05/25 07:09:07;;;;;;;;;;;;;;;-144.12;100.00;72078.50;5045441;28;19916;-63
2022/05/25 07:11:33;;;;;;;;;;;;;;;-144.12;100.00;72078.50;5049370;28;19924;-62
2022/05/25 07:13:59;;;;;;;;;;;;;;;-144.12;100.00;72078.50;5014886;28;19913;-63
2022/05/25 07:16:25;;;;;;;;;;;;;;;-144.12;100.00;72078.50;5030608;28;20359;-61
2022/05/25 07:18:50;;;;;;;;;;;;;;;-144.12;100.00;72078.50;5051361;28;19931;-62
2022/05/25 07:21:20;;;;;;;;;;;;;;;-144.12;100.00;72078.50;5047308;28;19923;-65
2022/05/25 07:23:47;;;;;;;;;;;;;;;-144.12;100.00;72078.50;5041834;28;20118;-62
2022/05/25 07:26:13;;;;;;;;;;;;;;;-144.12;100.00;72078.50;5045109;28;20365;-64
2022/05/25 07:28:38;;;;;;;;;;;;;;;-144.12;100.00;72078.50;5047420;28;19959;-65
2022/05/25 07:31:08;;;;;;;;;;;;;;;-144.12;100.00;72078.50;5041359;28;19921;-64
2022/05/25 07:33:34;;;;;;;;;;;;;;;-144.12;100.00;72078.50;5047877;28;20436;-64
2022/05/25 07:35:59;;;;;;;;;;;;;;;-144.12;100.00;72078.50;5048899;28;19916;-63
2022/05/25 07:38:25;;;;;;;;;;;;;;;-144.12;100.00;72078.50;5027664;28;20344;-66
2022/05/25 07:40:51;;;;;;;;;;;;;;;-144.12;100.00;72078.50;5027306;28;19912;-64
2022/05/25 07:43:18;;;;;;;;;;;;;;;-144.12;100.00;72078.50;5043485;28;20333;-63
2022/05/25 07:45:44;;;;;;;;;;;;;;;-144.12;100.00;72078.50;5029731;28;19912;-66
2022/05/25 07:48:10;;;;;;;;;;;;;;;-144.12;100.00;72078.50;5034162;28;19917;-65
2022/05/25 07:50:36;;;;;;;;;;;;;;;-144.12;100.00;72078.50;5042860;28;20428;-65
2022/05/25 07:53:03;;;;;;;;;;;;;;;-144.12;100.00;72078.50;5038207;28;19935;-63
2022/05/25 07:55:28;;;;;;;;;;;;;;;-144.12;100.00;72078.50;5042564;28;19920;-64
2022/05/25 07:57:53;;;;;;;;;;;;;;;-144.12;100.00;72078.50;5012897;28;19932;-65
2022/05/25 08:00:21;;;;;;;;;;;;;;;-144.12;100.00;72078.50;5037764;28;19920;-65
2022/05/25 08:05:46;;;;;;;;;;;;;;;-144.12;100.00;72078.50;5043488;28;19942;-68
2022/05/25 08:08:14;;;;;;;;;;;;;;;-144.12;100.00;72078.50;5042374;28;19917;-63
2022/05/25 08:10:40;;;;;;;;;;;;;;;-144.12;100.00;72078.50;5031511;28;20284;-64
2022/05/25 08:13:06;;;;;;;;;;;;;;;-144.12;100.00;72078.50;5046337;28;19916;-66
2022/05/25 08:15:33;;;;;;;;;;;;;;;-144.12;100.00;72078.50;5042312;28;19913;-65
2022/05/25 08:17:59;;;;;;;;;;;;;;;-144.12;100.00;72078.50;5044972;28;20007;-64
2022/05/25 08:20:24;;;;;;;;;;;;;;;-144.12;100.00;72078.50;5042205;28;19999;-64
2022/05/25 08:22:50;;;;;;;;;;;;;;;-144.12;100.00;72078.50;5030420;28;19936;-64
2022/05/25 08:25:16;;;;;;;;;;;;;;;-144.12;100.00;72078.50;5041441;28;19913;-64
2022/05/25 08:27:42;;;;;;;;;;;;;;;-144.12;100.00;72078.50;5020331;28;19913;-63
2022/05/25 08:30:18;;;;;;;;;;;;;;;-144.12;100.00;72078.50;5027764;28;19970;-65
2022/05/25 08:32:44;;;;;;;;;;;;;;;-144.12;100.00;72078.50;5012798;28;19961;-64
2022/05/25 08:35:10;;;;;;;;;;;;;;;-144.12;100.00;72078.50;5039362;28;19917;-64
2022/05/25 08:37:35;;;;;;;;;;;;;;;-144.12;100.00;72078.50;5026117;28;19936;-66
2022/05/25 08:40:00;;;;;;;;;;;;;;;-144.12;100.00;72078.50;5041109;28;19956;-64
2022/05/25 08:42:29;;;;;;;;;;;;;;;-144.12;100.00;72078.50;5037829;28;19917;-64
2022/05/25 08:44:55;;;;;;;;;;;;;;;-144.12;100.00;72078.50;5029943;28;19913;-65
2022/05/25 08:47:20;;;;;;;;;;;;;;;-144.12;100.00;72078.50;5027567;28;20450;-64
2022/05/25 08:49:47;;;;;;;;;;;;;;;-144.12;100.00;72078.50;5033840;28;20018;-64
2022/05/25 08:52:32;;;;;;;;;;;;;;;-144.12;100.00;72078.50;5045064;28;20001;-67
2022/05/25 08:54:58;;;;;;;;;;;;;;;-144.12;100.00;72078.50;5015929;28;19916;-64
2022/05/25 08:57:30;;;;;;;;;;;;;;;-144.12;100.00;72078.50;5042379;28;19921;-65
2022/05/25 09:00:17;;;;;;;;;;;;;;;-144.12;100.00;72078.50;5026507;28;19944;-64
2022/05/25 09:02:43;;;;;;;;;;;;;;;-144.12;100.00;72078.50;5035186;28;19923;-63
2022/05/25 09:05:16;;;;;;;;;;;;;;;-144.12;100.00;72078.50;5019799;28;20023;-66
2022/05/25 09:07:50;;;;;;;;;;;;;;;-144.12;100.00;72078.50;5032147;28;19916;-66
2022/05/25 09:10:17;;;;;;;;;;;;;;;-144.12;100.00;72078.50;5021044;28;19917;-66
2022/05/25 09:12:44;;;;;;;;;;;;;;;-144.12;100.00;72078.50;5032600;28;19916;-64
2022/05/25 09:15:10;;;;;;;;;;;;;;;-144.12;100.00;72078.50;5039525;28;19913;-63
2022/05/25 09:17:58;;;;;;;;;;;;;;;-144.12;100.00;72078.50;5042040;28;20272;-63
2022/05/25 09:20:31;;;;;;;;;;;;;;;-144.12;100.00;72078.50;5023482;28;19921;-63
2022/05/25 09:22:57;;;;;;;;;;;;;;;-144.12;100.00;72078.50;5032153;28;20401;-64
2022/05/25 09:25:22;;;;;;;;;;;;;;;-144.12;100.00;72078.50;5022074;28;20379;-68
2022/05/25 09:28:03;;;;;;;;;;;;;;;-144.12;100.00;72078.50;5035232;28;19935;-67
2022/05/25 09:30:30;;;;;;;;;;;;;;;-144.12;100.00;72078.50;5040164;28;20574;-63
2022/05/25 09:33:01;;;;;;;;;;;;;;;-144.12;100.00;72078.50;5038716;28;19913;-65
2022/05/25 09:35:41;;;;;;;;;;;;;;;-144.12;100.00;72078.50;5044717;28;19970;-64
2022/05/25 09:38:26;;;;;;;;;;;;;;;-144.12;100.00;72078.50;5046719;28;20296;-63
2022/05/25 09:40:51;;;;;;;;;;;;;;;-144.12;100.00;72078.50;5050557;28;19913;-67
2022/05/25 09:43:25;;;;;;;;;;;;;;;-144.12;100.00;72078.50;5051360;28;19920;-65
2022/05/25 09:45:53;;;;;;;;;;;;;;;-144.12;100.00;72078.50;5047144;28;19913;-66
2022/05/25 09:48:24;;;;;;;;;;;;;;;-144.12;100.00;72078.50;5017541;28;19917;-64
2022/05/25 09:51:25;;;;;;;;;;;;;;;-144.12;100.00;72078.50;5050289;28;19921;-67
2022/05/25 09:53:56;;;;;;;;;;;;;;;-144.12;100.00;72078.50;4940449;28;20005;-63
2022/05/25 09:56:28;;;;;;;;;;;;;;;-144.12;100.00;72078.50;5020570;28;19920;-65
2022/05/25 09:58:55;;;;;;;;;;;;;;;-144.12;100.00;72078.50;5035371;28;19923;-65
2022/05/25 10:01:28;;;;;;;;;;;;;;;-144.12;100.00;72078.50;5051371;28;20292;-64
2022/05/25 10:03:54;;;;;;;;;;;;;;;-144.12;100.00;72078.50;5040902;28;19917;-63
2022/05/25 10:06:23;;;;;;;;;;;;;;;-144.12;100.00;72078.50;5036351;28;19924;-63
2022/05/25 10:09:08;;;;;;;;;;;;;;;-144.12;100.00;72078.50;5043778;28;19921;-65
2022/05/25 10:11:39;;;;;;;;;;;;;;;-144.12;100.00;72078.50;5031636;28;19920;-66
2022/05/25 10:14:14;;;;;;;;;;;;;;;-144.12;100.00;72078.50;5039126;28;19921;-64
2022/05/25 10:16:39;;;;;;;;;;;;;;;-144.12;100.00;72078.50;5024203;28;20037;-64
2022/05/25 10:19:08;;;;;;;;;;;;;;;-144.12;100.00;72078.50;5033284;28;19924;-67
2022/05/25 10:21:37;;;;;;;;;;;;;;;-144.12;100.00;72078.50;5041888;28;19916;-64
2022/05/25 10:24:12;;;;;;;;;;;;;;;-144.12;100.00;72078.50;5026130;28;19986;-67
2022/05/25 10:26:44;;;;;;;;;;;;;;;-144.12;100.00;72078.50;5042787;28;20413;-64
2022/05/25 10:29:11;;;;;;;;;;;;;;;-144.12;100.00;72078.50;5022380;28;19920;-65
2022/05/25 10:37:31;;;;;;;;;;;;;;;-144.12;100.00;72078.50;5031616;28;19920;-63
2022/05/25 10:39:59;;;;;;;;;;;;;;;-144.12;100.00;72078.50;5042633;28;20008;-63
2022/05/25 10:42:28;;;;;;;;;;;;;;;-144.12;100.00;72078.50;5037568;28;19917;-63
2022/05/25 10:44:59;;;;;;;;;;;;;;;-144.12;100.00;72078.50;5012315;28;19912;-67
2022/05/25 10:47:24;;;;;;;;;;;;;;;-144.12;100.00;72078.50;5037722;28;19917;-64
2022/05/25 10:49:51;;;;;;;;;;;;;;;-144.12;100.00;72078.50;5024670;28;20389;-65
2022/05/25 10:52:20;;;;;;;;;;;;;;;-144.12;100.00;72078.50;5024788;28;20360;-64
2022/05/25 10:54:45;;;;;;;;;;;;;;;-144.12;100.00;72078.50;5015182;28;20302;-64
2022/05/25 10:57:29;;;;;;;;;;;;;;;-144.12;100.00;72078.50;5039005;28;19917;-63
2022/05/25 10:59:54;;;;;;;;;;;;;;;-144.12;100.00;72078.50;5045300;28;20264;-65
2022/05/25 11:02:38;;;;;;;;;;;;;;;-144.12;100.00;72078.50;5041501;28;19923;-67
2022/05/25 11:05:09;;;;;;;;;;;;;;;-144.12;100.00;72078.50;5028699;28;20493;-67
2022/05/25 11:07:34;;;;;;;;;;;;;;;-144.12;100.00;72078.50;5055703;28;20463;-67
2022/05/25 11:10:11;;;;;;;;;;;;;;;-144.12;100.00;72078.50;5046902;28;20015;-63
2022/05/25 11:12:39;;;;;;;;;;;;;;;-144.12;100.00;72078.50;5047346;28;19917;-64
2022/05/25 11:15:22;;;;;;;;;;;;;;;-144.12;100.00;72078.50;5046376;28;20425;-64
2022/05/25 11:17:56;;;;;;;;;;;;;;;-144.12;100.00;72078.50;5043667;28;20215;-64
2022/05/25 11:20:28;;;;;;;;;;;;;;;-144.12;100.00;72078.50;5037438;28;19920;-65
2022/05/25 11:23:05;;;;;;;;;;;;;;;-144.12;100.00;72078.50;5037823;28;20379;-64
2022/05/25 11:25:42;;;;;;;;;;;;;;;-144.12;100.00;72078.50;5030139;28;19942;-63
2022/05/25 11:28:07;;;;;;;;;;;;;;;-144.12;100.00;72078.50;5048972;28;19940;-64
2022/05/25 11:30:47;;;;;;;;;;;;;;;-144.12;100.00;72078.50;5056726;28;20442;-66
2022/05/25 11:33:12;;;;;;;;;;;;;;;-144.12;100.00;72078.50;5047881;28;20397;-63
2022/05/25 11:35:41;;;;;;;;;;;;;;;-144.12;100.00;72078.50;5040323;28;19924;-63
2022/05/25 11:38:11;;;;;;;;;;;;;;;-144.12;100.00;72078.50;5045196;23;20186;-62
2022/05/25 11:40:43;;;;;;;;;;;;;;;-144.12;100.00;72078.50;5014236;28;19939;-62
2022/05/25 11:43:11;;;;;;;;;;;;;;;-144.12;100.00;72078.50;5013925;28;19952;-62
2022/05/25 11:45:45;;;;;;;;;;;;;;;-144.12;100.00;72078.50;4986316;28;19921;-64
2022/05/25 11:48:38;;;;;;;;;;;;;;;-144.12;100.00;72078.50;5006862;28;20595;-59
2022/05/25 11:51:11;;;;;;;;;;;;;;;-144.12;100.00;72078.50;5015871;28;19932;-64
2022/05/25 11:53:56;;;;;;;;;;;;;;;-144.12;100.00;72078.50;5006106;28;19995;-64
2022/05/25 11:56:30;;;;;;;;;;;;;;;-144.12;100.00;72078.50;4983215;28;19917;-63
2022/05/25 11:59:05;;;;;;;;;;;;;;;-144.12;100.00;72078.50;4996290;28;20303;-64
2022/05/25 12:01:49;;;;;;;;;;;;;;;-144.12;100.00;72078.50;5006205;28;19976;-64
2022/05/25 12:04:20;;;;;;;;;;;;;;;-144.12;100.00;72078.50;5017735;28;20055;-63
2022/05/25 12:06:55;;;;;;;;;;;;;;;-144.12;100.00;72078.50;5013225;28;19917;-64
2022/05/25 12:09:20;;;;;;;;;;;;;;;-144.12;100.00;72078.50;5013156;28;19913;-65
2022/05/25 12:11:50;;;;;;;;;;;;;;;-144.12;100.00;72078.50;5015573;28;19974;-65
2022/05/25 12:14:28;;;;;;;;;;;;;;;-144.12;100.00;72078.50;5013141;28;19919;-65
2022/05/25 12:16:56;;;;;;;;;;;;;;;-144.12;100.00;72078.50;5015960;28;19984;-65
2022/05/25 12:19:27;;;;;;;;;;;;;;;-144.12;100.00;72078.50;5004785;28;20047;-64
2022/05/25 12:21:58;;;;;;;;;;;;;;;-144.12;100.00;72078.50;5014444;28;19959;-63
2022/05/25 12:24:26;;;;;;;;;;;;;;;-144.12;100.00;72078.50;5003132;28;19921;-63
2022/05/25 12:26:52;;;;;;;;;;;;;;;-144.12;100.00;72078.50;5019189;28;19913;-65
2022/05/25 12:29:17;;;;;;;;;;;;;;;-144.12;100.00;72078.50;5016980;28;19913;-63
2022/05/25 12:31:44;;;;;;;;;;;;;;;-144.12;100.00;72078.50;5005983;28;19925;-64
2022/05/25 12:34:18;;;;;;;;;;;;;;;-144.12;100.00;72078.50;5008965;28;20015;-65
2022/05/25 12:36:44;;;;;;;;;;;;;;;-144.12;100.00;72078.50;5011951;28;19925;-62
2022/05/25 12:39:09;;;;;;;;;;;;;;;-144.12;100.00;72078.50;5001750;28;20265;-66
2022/05/25 12:41:39;;;;;;;;;;;;;;;-144.12;100.00;72078.50;4998919;28;19917;-65
2022/05/25 12:49:37;;;;;;;;;;;;;;;-144.12;100.00;72078.50;5020073;28;19924;-66
2022/05/25 12:52:23;;;;;;;;;;;;;;;-144.12;100.00;72078.50;5020036;28;19971;-65